sensor_id;sensor_type;location;lat;lon;timestamp;P1;durP1;ratioP1;P2;durP2;ratioP2
20649;SDS011;10484;48.736;9.332;2024-01-27T00:01:13;3.50;;;2.13;;
20649;SDS011;10484;48.736;9.332;2024-01-27T00:03:39;3.20;;;2.27;;
20649;SDS011;10484;48.736;9.332;2024-01-27T00:06:05;2.70;;;2.00;;
20649;SDS011;10484;48.736;9.332;2024-01-27T00:08:30;3.30;;;2.57;;
20649;SDS011;10484;48.736;9.332;2024-01-27T00:10:56;2.60;;;1.73;;
20649;SDS011;10484;48.736;9.332;2024-01-27T00:13:21;2.90;;;1.70;;
20649;SDS011;10484;48.736;9.332;2024-01-27T00:15:47;1.73;;;1.40;;
20649;SDS011;10484;48.736;9.332;2024-01-27T00:18:13;2.47;;;1.83;;
20649;SDS011;10484;48.736;9.332;2024-01-27T00:20:40;2.28;;;1.50;;
20649;SDS011;10484;48.736;9.332;2024-01-27T00:23:05;3.33;;;1.80;;
20649;SDS011;10484;48.736;9.332;2024-01-27T00:25:31;4.37;;;2.13;;
20649;SDS011;10484;48.736;9.332;2024-01-27T00:27:57;2.67;;;1.70;;
20649;SDS011;10484;48.736;9.332;2024-01-27T00:30:22;2.63;;;1.50;;
20649;SDS011;10484;48.736;9.332;2024-01-27T00:32:48;4.73;;;1.70;;
20649;SDS011;10484;48.736;9.332;2024-01-27T00:35:13;2.00;;;1.53;;
20649;SDS011;10484;48.736;9.332;2024-01-27T00:37:41;3.83;;;2.00;;
20649;SDS011;10484;48.736;9.332;2024-01-27T00:40:10;2.23;;;1.70;;
20649;SDS011;10484;48.736;9.332;2024-01-27T00:42:36;2.65;;;1.85;;
20649;SDS011;10484;48.736;9.332;2024-01-27T00:45:03;1.70;;;1.60;;
20649;SDS011;10484;48.736;9.332;2024-01-27T00:47:30;3.47;;;1.83;;
20649;SDS011;10484;48.736;9.332;2024-01-27T00:49:56;2.67;;;1.75;;
20649;SDS011;10484;48.736;9.332;2024-01-27T00:52:21;3.80;;;1.73;;
20649;SDS011;10484;48.736;9.332;2024-01-27T00:54:47;3.30;;;2.10;;
20649;SDS011;10484;48.736;9.332;2024-01-27T00:57:13;2.40;;;1.47;;
20649;SDS011;10484;48.736;9.332;2024-01-27T00:59:39;1.97;;;1.57;;
20649;SDS011;10484;48.736;9.332;2024-01-27T01:02:06;2.47;;;1.88;;
20649;SDS011;10484;48.736;9.332;2024-01-27T01:04:31;3.05;;;1.38;;
20649;SDS011;10484;48.736;9.332;2024-01-27T01:06:57;3.87;;;1.30;;
20649;SDS011;10484;48.736;9.332;2024-01-27T01:09:23;1.53;;;1.33;;
20649;SDS011;10484;48.736;9.332;2024-01-27T01:11:48;3.20;;;2.27;;
20649;SDS011;10484;48.736;9.332;2024-01-27T01:14:14;5.20;;;2.00;;
20649;SDS011;10484;48.736;9.332;2024-01-27T01:16:40;3.10;;;1.80;;
20649;SDS011;10484;48.736;9.332;2024-01-27T01:19:06;3.50;;;1.97;;
20649;SDS011;10484;48.736;9.332;2024-01-27T01:21:31;3.00;;;1.50;;
20649;SDS011;10484;48.736;9.332;2024-01-27T01:23:57;1.90;;;1.70;;
20649;SDS011;10484;48.736;9.332;2024-01-27T01:26:23;2.60;;;1.80;;
20649;SDS011;10484;48.736;9.332;2024-01-27T01:28:49;3.38;;;1.70;;
20649;SDS011;10484;48.736;9.332;2024-01-27T01:31:15;2.27;;;1.50;;
20649;SDS011;10484;48.736;9.332;2024-01-27T01:33:41;3.70;;;1.85;;
20649;SDS011;10484;48.736;9.332;2024-01-27T01:36:07;2.15;;;1.85;;
20649;SDS011;10484;48.736;9.332;2024-01-27T01:38:33;2.67;;;1.70;;
20649;SDS011;10484;48.736;9.332;2024-01-27T01:40:59;4.83;;;1.93;;
20649;SDS011;10484;48.736;9.332;2024-01-27T01:43:24;1.83;;;1.47;;
20649;SDS011;10484;48.736;9.332;2024-01-27T01:45:50;4.70;;;2.00;;
20649;SDS011;10484;48.736;9.332;2024-01-27T01:48:18;8.07;;;2.10;;
20649;SDS011;10484;48.736;9.332;2024-01-27T01:50:44;3.80;;;1.65;;
20649;SDS011;10484;48.736;9.332;2024-01-27T01:53:10;3.45;;;1.85;;
20649;SDS011;10484;48.736;9.332;2024-01-27T01:55:37;3.63;;;1.60;;
20649;SDS011;10484;48.736;9.332;2024-01-27T01:58:03;4.60;;;2.67;;
20649;SDS011;10484;48.736;9.332;2024-01-27T02:00:29;3.85;;;2.17;;
20649;SDS011;10484;48.736;9.332;2024-01-27T02:02:55;3.20;;;1.73;;
20649;SDS011;10484;48.736;9.332;2024-01-27T02:05:21;4.73;;;2.07;;
20649;SDS011;10484;48.736;9.332;2024-01-27T02:07:46;4.50;;;2.13;;
20649;SDS011;10484;48.736;9.332;2024-01-27T02:10:13;3.03;;;1.50;;
20649;SDS011;10484;48.736;9.332;2024-01-27T02:12:40;2.55;;;1.85;;
20649;SDS011;10484;48.736;9.332;2024-01-27T02:15:10;3.00;;;2.15;;
20649;SDS011;10484;48.736;9.332;2024-01-27T02:17:37;5.93;;;2.40;;
20649;SDS011;10484;48.736;9.332;2024-01-27T02:20:04;4.18;;;2.00;;
20649;SDS011;10484;48.736;9.332;2024-01-27T02:22:31;2.40;;;1.55;;
20649;SDS011;10484;48.736;9.332;2024-01-27T02:25:01;2.90;;;1.92;;
20649;SDS011;10484;48.736;9.332;2024-01-27T02:27:28;3.38;;;1.90;;
20649;SDS011;10484;48.736;9.332;2024-01-27T02:29:53;2.70;;;2.00;;
20649;SDS011;10484;48.736;9.332;2024-01-27T02:32:19;2.37;;;1.40;;
20649;SDS011;10484;48.736;9.332;2024-01-27T02:34:44;3.40;;;2.23;;
20649;SDS011;10484;48.736;9.332;2024-01-27T02:37:10;5.10;;;2.03;;
20649;SDS011;10484;48.736;9.332;2024-01-27T02:39:35;2.63;;;2.13;;
20649;SDS011;10484;48.736;9.332;2024-01-27T02:42:01;2.03;;;1.80;;
20649;SDS011;10484;48.736;9.332;2024-01-27T02:44:27;4.30;;;2.17;;
20649;SDS011;10484;48.736;9.332;2024-01-27T02:46:52;6.80;;;1.80;;
20649;SDS011;10484;48.736;9.332;2024-01-27T02:49:18;5.63;;;2.03;;
20649;SDS011;10484;48.736;9.332;2024-01-27T02:51:44;2.60;;;1.73;;
20649;SDS011;10484;48.736;9.332;2024-01-27T02:54:09;3.60;;;2.17;;
20649;SDS011;10484;48.736;9.332;2024-01-27T02:56:35;5.10;;;2.90;;
20649;SDS011;10484;48.736;9.332;2024-01-27T02:59:01;2.27;;;1.30;;
20649;SDS011;10484;48.736;9.332;2024-01-27T03:01:27;2.25;;;1.50;;
20649;SDS011;10484;48.736;9.332;2024-01-27T03:03:53;7.20;;;1.87;;
20649;SDS011;10484;48.736;9.332;2024-01-27T03:06:18;4.93;;;1.57;;
20649;SDS011;10484;48.736;9.332;2024-01-27T03:08:44;7.03;;;2.20;;
20649;SDS011;10484;48.736;9.332;2024-01-27T03:11:10;3.43;;;2.40;;
20649;SDS011;10484;48.736;9.332;2024-01-27T03:13:36;3.40;;;2.23;;
20649;SDS011;10484;48.736;9.332;2024-01-27T03:16:01;3.13;;;2.37;;
20649;SDS011;10484;48.736;9.332;2024-01-27T03:18:27;4.93;;;2.40;;
20649;SDS011;10484;48.736;9.332;2024-01-27T03:20:53;3.70;;;2.00;;
20649;SDS011;10484;48.736;9.332;2024-01-27T03:23:18;2.30;;;1.83;;
20649;SDS011;10484;48.736;9.332;2024-01-27T03:25:44;8.17;;;2.40;;
20649;SDS011;10484;48.736;9.332;2024-01-27T03:28:11;2.92;;;1.90;;
20649;SDS011;10484;48.736;9.332;2024-01-27T03:30:36;3.10;;;2.50;;
20649;SDS011;10484;48.736;9.332;2024-01-27T03:33:02;3.57;;;1.93;;
20649;SDS011;10484;48.736;9.332;2024-01-27T03:35:28;4.90;;;2.37;;
20649;SDS011;10484;48.736;9.332;2024-01-27T03:37:53;4.10;;;2.00;;
20649;SDS011;10484;48.736;9.332;2024-01-27T03:40:19;6.90;;;2.80;;
20649;SDS011;10484;48.736;9.332;2024-01-27T03:42:45;3.73;;;1.80;;
20649;SDS011;10484;48.736;9.332;2024-01-27T03:45:10;2.30;;;1.97;;
20649;SDS011;10484;48.736;9.332;2024-01-27T03:47:36;2.43;;;2.03;;
20649;SDS011;10484;48.736;9.332;2024-01-27T03:50:02;5.50;;;2.33;;
20649;SDS011;10484;48.736;9.332;2024-01-27T03:52:27;2.60;;;2.13;;
20649;SDS011;10484;48.736;9.332;2024-01-27T03:54:53;3.83;;;2.17;;
20649;SDS011;10484;48.736;9.332;2024-01-27T03:57:18;6.73;;;3.00;;
20649;SDS011;10484;48.736;9.332;2024-01-27T03:59:47;5.50;;;2.33;;
20649;SDS011;10484;48.736;9.332;2024-01-27T04:02:13;5.10;;;2.40;;
20649;SDS011;10484;48.736;9.332;2024-01-27T04:04:38;2.40;;;2.20;;
20649;SDS011;10484;48.736;9.332;2024-01-27T04:07:04;5.07;;;2.20;;
20649;SDS011;10484;48.736;9.332;2024-01-27T04:09:29;6.17;;;2.40;;
20649;SDS011;10484;48.736;9.332;2024-01-27T04:11:55;9.20;;;2.97;;
20649;SDS011;10484;48.736;9.332;2024-01-27T04:14:20;4.10;;;2.37;;
20649;SDS011;10484;48.736;9.332;2024-01-27T04:16:46;3.33;;;2.20;;
20649;SDS011;10484;48.736;9.332;2024-01-27T04:19:11;4.93;;;2.70;;
20649;SDS011;10484;48.736;9.332;2024-01-27T04:21:37;3.87;;;1.80;;
20649;SDS011;10484;48.736;9.332;2024-01-27T04:24:03;4.10;;;3.30;;
20649;SDS011;10484;48.736;9.332;2024-01-27T04:26:28;4.40;;;2.27;;
20649;SDS011;10484;48.736;9.332;2024-01-27T04:28:54;5.50;;;2.23;;
20649;SDS011;10484;48.736;9.332;2024-01-27T04:31:20;2.97;;;2.40;;
20649;SDS011;10484;48.736;9.332;2024-01-27T04:33:46;2.53;;;2.25;;
20649;SDS011;10484;48.736;9.332;2024-01-27T04:36:12;3.37;;;2.40;;
20649;SDS011;10484;48.736;9.332;2024-01-27T04:38:37;3.83;;;2.43;;
20649;SDS011;10484;48.736;9.332;2024-01-27T04:41:03;4.37;;;2.40;;
20649;SDS011;10484;48.736;9.332;2024-01-27T04:43:28;2.33;;;2.13;;
20649;SDS011;10484;48.736;9.332;2024-01-27T04:45:54;5.20;;;2.53;;
20649;SDS011;10484;48.736;9.332;2024-01-27T04:48:20;3.57;;;2.00;;
20649;SDS011;10484;48.736;9.332;2024-01-27T04:50:46;5.80;;;2.28;;
20649;SDS011;10484;48.736;9.332;2024-01-27T04:53:11;8.60;;;3.30;;
20649;SDS011;10484;48.736;9.332;2024-01-27T04:55:37;5.93;;;2.50;;
20649;SDS011;10484;48.736;9.332;2024-01-27T04:58:03;3.17;;;2.27;;
20649;SDS011;10484;48.736;9.332;2024-01-27T05:00:30;9.35;;;2.63;;
20649;SDS011;10484;48.736;9.332;2024-01-27T05:02:55;3.67;;;2.53;;
20649;SDS011;10484;48.736;9.332;2024-01-27T05:05:22;4.47;;;2.63;;
20649;SDS011;10484;48.736;9.332;2024-01-27T05:07:48;4.32;;;2.03;;
20649;SDS011;10484;48.736;9.332;2024-01-27T05:10:15;2.60;;;2.40;;
20649;SDS011;10484;48.736;9.332;2024-01-27T05:12:42;3.20;;;2.25;;
20649;SDS011;10484;48.736;9.332;2024-01-27T05:15:07;4.60;;;2.17;;
20649;SDS011;10484;48.736;9.332;2024-01-27T05:17:35;4.95;;;2.30;;
20649;SDS011;10484;48.736;9.332;2024-01-27T05:20:01;4.37;;;2.23;;
20649;SDS011;10484;48.736;9.332;2024-01-27T05:22:29;3.28;;;1.90;;
20649;SDS011;10484;48.736;9.332;2024-01-27T05:24:54;2.03;;;1.73;;
20649;SDS011;10484;48.736;9.332;2024-01-27T05:27:20;4.23;;;2.20;;
20649;SDS011;10484;48.736;9.332;2024-01-27T05:29:46;5.20;;;2.60;;
20649;SDS011;10484;48.736;9.332;2024-01-27T05:32:11;5.07;;;2.97;;
20649;SDS011;10484;48.736;9.332;2024-01-27T05:34:37;3.80;;;2.63;;
20649;SDS011;10484;48.736;9.332;2024-01-27T05:37:03;4.30;;;2.50;;
20649;SDS011;10484;48.736;9.332;2024-01-27T05:39:28;4.18;;;2.30;;
20649;SDS011;10484;48.736;9.332;2024-01-27T05:41:54;3.40;;;2.20;;
20649;SDS011;10484;48.736;9.332;2024-01-27T05:44:20;2.50;;;2.20;;
20649;SDS011;10484;48.736;9.332;2024-01-27T05:46:45;3.50;;;2.50;;
20649;SDS011;10484;48.736;9.332;2024-01-27T05:49:11;4.65;;;2.63;;
20649;SDS011;10484;48.736;9.332;2024-01-27T05:51:37;3.17;;;2.33;;
20649;SDS011;10484;48.736;9.332;2024-01-27T05:54:03;8.50;;;2.73;;
20649;SDS011;10484;48.736;9.332;2024-01-27T05:56:28;2.43;;;2.17;;
20649;SDS011;10484;48.736;9.332;2024-01-27T05:58:54;5.80;;;2.17;;
20649;SDS011;10484;48.736;9.332;2024-01-27T06:01:20;5.13;;;2.83;;
20649;SDS011;10484;48.736;9.332;2024-01-27T06:03:45;6.10;;;2.23;;
20649;SDS011;10484;48.736;9.332;2024-01-27T06:06:11;3.90;;;2.50;;
20649;SDS011;10484;48.736;9.332;2024-01-27T06:08:37;6.57;;;2.97;;
20649;SDS011;10484;48.736;9.332;2024-01-27T06:11:03;4.93;;;2.80;;
20649;SDS011;10484;48.736;9.332;2024-01-27T06:13:29;6.80;;;2.70;;
20649;SDS011;10484;48.736;9.332;2024-01-27T06:15:54;5.10;;;2.30;;
20649;SDS011;10484;48.736;9.332;2024-01-27T06:18:20;5.50;;;3.43;;
20649;SDS011;10484;48.736;9.332;2024-01-27T06:20:46;4.45;;;2.50;;
20649;SDS011;10484;48.736;9.332;2024-01-27T06:23:12;3.07;;;2.77;;
20649;SDS011;10484;48.736;9.332;2024-01-27T06:25:37;5.00;;;2.60;;
20649;SDS011;10484;48.736;9.332;2024-01-27T06:28:03;4.60;;;2.70;;
20649;SDS011;10484;48.736;9.332;2024-01-27T06:30:28;4.60;;;2.90;;
20649;SDS011;10484;48.736;9.332;2024-01-27T06:32:54;6.20;;;2.63;;
20649;SDS011;10484;48.736;9.332;2024-01-27T06:35:20;3.57;;;2.90;;
20649;SDS011;10484;48.736;9.332;2024-01-27T06:37:45;4.80;;;2.67;;
20649;SDS011;10484;48.736;9.332;2024-01-27T06:40:11;5.90;;;2.93;;
20649;SDS011;10484;48.736;9.332;2024-01-27T06:42:37;7.90;;;3.47;;
20649;SDS011;10484;48.736;9.332;2024-01-27T06:45:03;2.97;;;2.63;;
20649;SDS011;10484;48.736;9.332;2024-01-27T06:47:29;3.45;;;2.42;;
20649;SDS011;10484;48.736;9.332;2024-01-27T06:49:54;3.50;;;2.43;;
20649;SDS011;10484;48.736;9.332;2024-01-27T06:52:20;3.63;;;3.20;;
20649;SDS011;10484;48.736;9.332;2024-01-27T06:54:46;3.73;;;2.77;;
20649;SDS011;10484;48.736;9.332;2024-01-27T06:57:21;5.73;;;2.87;;
20649;SDS011;10484;48.736;9.332;2024-01-27T06:59:48;5.50;;;3.60;;
20649;SDS011;10484;48.736;9.332;2024-01-27T07:02:17;6.97;;;2.45;;
20649;SDS011;10484;48.736;9.332;2024-01-27T07:04:44;4.80;;;3.22;;
20649;SDS011;10484;48.736;9.332;2024-01-27T07:07:09;3.17;;;2.83;;
20649;SDS011;10484;48.736;9.332;2024-01-27T07:09:35;3.33;;;2.70;;
20649;SDS011;10484;48.736;9.332;2024-01-27T07:12:00;4.10;;;2.40;;
20649;SDS011;10484;48.736;9.332;2024-01-27T07:14:27;4.38;;;3.00;;
20649;SDS011;10484;48.736;9.332;2024-01-27T07:16:52;3.80;;;2.77;;
20649;SDS011;10484;48.736;9.332;2024-01-27T07:19:18;6.80;;;3.23;;
20649;SDS011;10484;48.736;9.332;2024-01-27T07:21:43;4.57;;;3.40;;
20649;SDS011;10484;48.736;9.332;2024-01-27T07:24:09;8.37;;;3.00;;
20649;SDS011;10484;48.736;9.332;2024-01-27T07:26:35;5.40;;;3.03;;
20649;SDS011;10484;48.736;9.332;2024-01-27T07:29:00;4.40;;;2.93;;
20649;SDS011;10484;48.736;9.332;2024-01-27T07:31:26;4.73;;;3.07;;
20649;SDS011;10484;48.736;9.332;2024-01-27T07:33:51;8.83;;;3.57;;
20649;SDS011;10484;48.736;9.332;2024-01-27T07:36:17;4.87;;;3.60;;
20649;SDS011;10484;48.736;9.332;2024-01-27T07:38:42;7.90;;;4.10;;
20649;SDS011;10484;48.736;9.332;2024-01-27T07:41:08;7.47;;;4.10;;
20649;SDS011;10484;48.736;9.332;2024-01-27T07:43:33;9.37;;;4.00;;
20649;SDS011;10484;48.736;9.332;2024-01-27T07:45:59;9.33;;;4.33;;
20649;SDS011;10484;48.736;9.332;2024-01-27T07:48:24;3.90;;;3.27;;
20649;SDS011;10484;48.736;9.332;2024-01-27T07:50:50;4.27;;;3.87;;
20649;SDS011;10484;48.736;9.332;2024-01-27T07:53:16;8.97;;;4.00;;
20649;SDS011;10484;48.736;9.332;2024-01-27T07:55:42;4.28;;;3.75;;
20649;SDS011;10484;48.736;9.332;2024-01-27T07:58:07;6.20;;;3.80;;
20649;SDS011;10484;48.736;9.332;2024-01-27T08:00:33;7.10;;;3.73;;
20649;SDS011;10484;48.736;9.332;2024-01-27T08:02:58;5.43;;;4.37;;
20649;SDS011;10484;48.736;9.332;2024-01-27T08:05:24;6.40;;;4.60;;
20649;SDS011;10484;48.736;9.332;2024-01-27T08:07:50;4.90;;;4.07;;
20649;SDS011;10484;48.736;9.332;2024-01-27T08:10:15;6.53;;;3.73;;
20649;SDS011;10484;48.736;9.332;2024-01-27T08:12:41;7.67;;;4.17;;
20649;SDS011;10484;48.736;9.332;2024-01-27T08:15:06;9.30;;;4.63;;
20649;SDS011;10484;48.736;9.332;2024-01-27T08:17:32;4.60;;;3.67;;
20649;SDS011;10484;48.736;9.332;2024-01-27T08:19:58;8.40;;;4.10;;
20649;SDS011;10484;48.736;9.332;2024-01-27T08:22:24;9.50;;;4.97;;
20649;SDS011;10484;48.736;9.332;2024-01-27T08:24:50;7.00;;;5.00;;
20649;SDS011;10484;48.736;9.332;2024-01-27T08:27:15;9.33;;;6.40;;
20649;SDS011;10484;48.736;9.332;2024-01-27T08:29:41;10.50;;;6.37;;
20649;SDS011;10484;48.736;9.332;2024-01-27T08:32:06;9.60;;;6.10;;
20649;SDS011;10484;48.736;9.332;2024-01-27T08:34:32;13.67;;;7.20;;
20649;SDS011;10484;48.736;9.332;2024-01-27T08:36:59;9.77;;;7.00;;
20649;SDS011;10484;48.736;9.332;2024-01-27T08:39:26;12.48;;;7.43;;
20649;SDS011;10484;48.736;9.332;2024-01-27T08:41:51;8.80;;;6.90;;
20649;SDS011;10484;48.736;9.332;2024-01-27T08:44:17;10.13;;;8.07;;
20649;SDS011;10484;48.736;9.332;2024-01-27T08:46:42;10.00;;;7.37;;
20649;SDS011;10484;48.736;9.332;2024-01-27T08:49:08;11.50;;;7.23;;
20649;SDS011;10484;48.736;9.332;2024-01-27T08:51:34;13.30;;;7.97;;
20649;SDS011;10484;48.736;9.332;2024-01-27T08:54:00;11.00;;;7.50;;
20649;SDS011;10484;48.736;9.332;2024-01-27T08:56:26;8.97;;;7.67;;
20649;SDS011;10484;48.736;9.332;2024-01-27T08:58:51;9.00;;;6.90;;
20649;SDS011;10484;48.736;9.332;2024-01-27T09:01:17;12.20;;;7.10;;
20649;SDS011;10484;48.736;9.332;2024-01-27T09:03:43;11.65;;;7.68;;
20649;SDS011;10484;48.736;9.332;2024-01-27T09:06:09;11.10;;;7.73;;
20649;SDS011;10484;48.736;9.332;2024-01-27T09:08:35;8.05;;;6.97;;
20649;SDS011;10484;48.736;9.332;2024-01-27T09:11:01;8.53;;;6.00;;
20649;SDS011;10484;48.736;9.332;2024-01-27T09:13:28;8.77;;;6.25;;
20649;SDS011;10484;48.736;9.332;2024-01-27T09:15:53;7.00;;;6.30;;
20649;SDS011;10484;48.736;9.332;2024-01-27T09:18:19;9.13;;;6.50;;
20649;SDS011;10484;48.736;9.332;2024-01-27T09:20:45;7.33;;;6.27;;
20649;SDS011;10484;48.736;9.332;2024-01-27T09:23:11;7.17;;;6.43;;
20649;SDS011;10484;48.736;9.332;2024-01-27T09:25:36;11.13;;;5.47;;
20649;SDS011;10484;48.736;9.332;2024-01-27T09:28:02;7.10;;;5.37;;
20649;SDS011;10484;48.736;9.332;2024-01-27T09:30:28;8.60;;;6.00;;
20649;SDS011;10484;48.736;9.332;2024-01-27T09:32:54;8.73;;;6.03;;
20649;SDS011;10484;48.736;9.332;2024-01-27T09:35:19;8.43;;;6.73;;
20649;SDS011;10484;48.736;9.332;2024-01-27T09:37:45;7.37;;;6.60;;
20649;SDS011;10484;48.736;9.332;2024-01-27T09:40:11;11.33;;;5.90;;
20649;SDS011;10484;48.736;9.332;2024-01-27T09:42:37;6.97;;;6.28;;
20649;SDS011;10484;48.736;9.332;2024-01-27T09:45:04;6.63;;;6.00;;
20649;SDS011;10484;48.736;9.332;2024-01-27T09:47:30;7.47;;;6.40;;
20649;SDS011;10484;48.736;9.332;2024-01-27T09:49:56;7.07;;;6.13;;
20649;SDS011;10484;48.736;9.332;2024-01-27T09:52:22;8.73;;;6.00;;
20649;SDS011;10484;48.736;9.332;2024-01-27T09:54:49;6.10;;;5.50;;
20649;SDS011;10484;48.736;9.332;2024-01-27T09:57:14;6.63;;;5.00;;
20649;SDS011;10484;48.736;9.332;2024-01-27T09:59:41;6.10;;;4.65;;
20649;SDS011;10484;48.736;9.332;2024-01-27T10:02:09;6.68;;;4.60;;
20649;SDS011;10484;48.736;9.332;2024-01-27T10:04:38;7.53;;;5.20;;
20649;SDS011;10484;48.736;9.332;2024-01-27T10:07:06;5.88;;;4.90;;
20649;SDS011;10484;48.736;9.332;2024-01-27T10:09:31;5.27;;;4.77;;
20649;SDS011;10484;48.736;9.332;2024-01-27T10:11:57;8.70;;;5.73;;
20649;SDS011;10484;48.736;9.332;2024-01-27T10:14:25;6.28;;;5.15;;
20649;SDS011;10484;48.736;9.332;2024-01-27T10:16:51;7.60;;;5.30;;
20649;SDS011;10484;48.736;9.332;2024-01-27T10:19:18;7.63;;;5.10;;
20649;SDS011;10484;48.736;9.332;2024-01-27T10:21:47;5.28;;;4.70;;
20649;SDS011;10484;48.736;9.332;2024-01-27T10:24:13;5.68;;;5.07;;
20649;SDS011;10484;48.736;9.332;2024-01-27T10:26:39;4.95;;;4.45;;
20649;SDS011;10484;48.736;9.332;2024-01-27T10:29:05;6.10;;;5.50;;
20649;SDS011;10484;48.736;9.332;2024-01-27T10:31:33;6.97;;;5.87;;
20649;SDS011;10484;48.736;9.332;2024-01-27T10:34:01;9.63;;;6.10;;
20649;SDS011;10484;48.736;9.332;2024-01-27T10:36:38;10.07;;;5.28;;
20649;SDS011;10484;48.736;9.332;2024-01-27T10:39:16;6.82;;;5.15;;
20649;SDS011;10484;48.736;9.332;2024-01-27T10:41:46;8.85;;;5.13;;
20649;SDS011;10484;48.736;9.332;2024-01-27T10:44:13;9.45;;;5.18;;
20649;SDS011;10484;48.736;9.332;2024-01-27T10:46:41;8.25;;;5.32;;
20649;SDS011;10484;48.736;9.332;2024-01-27T10:49:11;9.18;;;5.65;;
20649;SDS011;10484;48.736;9.332;2024-01-27T10:51:38;7.53;;;4.90;;
20649;SDS011;10484;48.736;9.332;2024-01-27T10:54:20;6.90;;;5.38;;
20649;SDS011;10484;48.736;9.332;2024-01-27T10:56:51;6.72;;;4.97;;
20649;SDS011;10484;48.736;9.332;2024-01-27T10:59:20;5.45;;;4.70;;
20649;SDS011;10484;48.736;9.332;2024-01-27T11:01:46;5.00;;;4.30;;
20649;SDS011;10484;48.736;9.332;2024-01-27T11:04:17;5.72;;;4.55;;
20649;SDS011;10484;48.736;9.332;2024-01-27T11:06:46;7.93;;;4.43;;
20649;SDS011;10484;48.736;9.332;2024-01-27T11:09:12;7.93;;;4.93;;
20649;SDS011;10484;48.736;9.332;2024-01-27T11:11:40;6.88;;;4.78;;
20649;SDS011;10484;48.736;9.332;2024-01-27T11:14:07;6.60;;;3.80;;
20649;SDS011;10484;48.736;9.332;2024-01-27T11:16:34;5.25;;;3.95;;
20649;SDS011;10484;48.736;9.332;2024-01-27T11:19:00;8.15;;;4.10;;
20649;SDS011;10484;48.736;9.332;2024-01-27T11:21:26;7.93;;;4.40;;
20649;SDS011;10484;48.736;9.332;2024-01-27T11:23:52;6.90;;;4.70;;
20649;SDS011;10484;48.736;9.332;2024-01-27T11:26:18;8.00;;;4.30;;
20649;SDS011;10484;48.736;9.332;2024-01-27T11:28:45;6.45;;;4.60;;
20649;SDS011;10484;48.736;9.332;2024-01-27T11:31:11;9.33;;;5.00;;
20649;SDS011;10484;48.736;9.332;2024-01-27T11:33:40;8.40;;;4.83;;
20649;SDS011;10484;48.736;9.332;2024-01-27T11:36:08;6.45;;;4.78;;
20649;SDS011;10484;48.736;9.332;2024-01-27T11:38:47;9.00;;;5.30;;
20649;SDS011;10484;48.736;9.332;2024-01-27T11:41:13;10.60;;;5.40;;
20649;SDS011;10484;48.736;9.332;2024-01-27T11:43:57;7.20;;;5.35;;
20649;SDS011;10484;48.736;9.332;2024-01-27T11:46:27;7.18;;;4.47;;
20649;SDS011;10484;48.736;9.332;2024-01-27T11:48:52;11.37;;;5.07;;
20649;SDS011;10484;48.736;9.332;2024-01-27T11:51:18;7.87;;;4.80;;
20649;SDS011;10484;48.736;9.332;2024-01-27T11:53:44;8.70;;;5.50;;
20649;SDS011;10484;48.736;9.332;2024-01-27T11:56:10;11.67;;;5.70;;
20649;SDS011;10484;48.736;9.332;2024-01-27T11:58:36;9.43;;;5.30;;
20649;SDS011;10484;48.736;9.332;2024-01-27T12:01:01;11.63;;;5.67;;
20649;SDS011;10484;48.736;9.332;2024-01-27T12:03:27;7.00;;;5.20;;
20649;SDS011;10484;48.736;9.332;2024-01-27T12:05:55;8.68;;;4.00;;
20649;SDS011;10484;48.736;9.332;2024-01-27T12:08:20;6.90;;;4.28;;
20649;SDS011;10484;48.736;9.332;2024-01-27T12:10:46;8.30;;;5.10;;
20649;SDS011;10484;48.736;9.332;2024-01-27T12:13:12;5.80;;;4.10;;
20649;SDS011;10484;48.736;9.332;2024-01-27T12:15:37;9.90;;;4.37;;
20649;SDS011;10484;48.736;9.332;2024-01-27T12:18:06;10.87;;;4.47;;
20649;SDS011;10484;48.736;9.332;2024-01-27T12:20:32;7.03;;;4.07;;
20649;SDS011;10484;48.736;9.332;2024-01-27T12:23:04;11.30;;;5.10;;
20649;SDS011;10484;48.736;9.332;2024-01-27T12:25:30;8.23;;;3.97;;
20649;SDS011;10484;48.736;9.332;2024-01-27T12:27:56;13.55;;;4.15;;
20649;SDS011;10484;48.736;9.332;2024-01-27T12:30:25;8.32;;;4.35;;
20649;SDS011;10484;48.736;9.332;2024-01-27T12:32:51;6.07;;;4.00;;
20649;SDS011;10484;48.736;9.332;2024-01-27T12:35:17;6.40;;;4.00;;
20649;SDS011;10484;48.736;9.332;2024-01-27T12:37:43;7.47;;;4.10;;
20649;SDS011;10484;48.736;9.332;2024-01-27T12:40:18;5.63;;;4.00;;
20649;SDS011;10484;48.736;9.332;2024-01-27T12:42:47;6.80;;;3.60;;
20649;SDS011;10484;48.736;9.332;2024-01-27T12:45:13;6.90;;;3.85;;
20649;SDS011;10484;48.736;9.332;2024-01-27T12:47:39;7.90;;;3.63;;
20649;SDS011;10484;48.736;9.332;2024-01-27T12:50:05;10.10;;;4.55;;
20649;SDS011;10484;48.736;9.332;2024-01-27T12:52:32;8.00;;;4.20;;
20649;SDS011;10484;48.736;9.332;2024-01-27T12:54:57;5.90;;;3.70;;
20649;SDS011;10484;48.736;9.332;2024-01-27T12:57:23;8.00;;;4.10;;
20649;SDS011;10484;48.736;9.332;2024-01-27T12:59:49;6.83;;;3.23;;
20649;SDS011;10484;48.736;9.332;2024-01-27T13:02:14;6.90;;;3.57;;
20649;SDS011;10484;48.736;9.332;2024-01-27T13:04:40;5.70;;;3.17;;
20649;SDS011;10484;48.736;9.332;2024-01-27T13:07:06;5.63;;;3.70;;
20649;SDS011;10484;48.736;9.332;2024-01-27T13:09:32;7.93;;;3.60;;
20649;SDS011;10484;48.736;9.332;2024-01-27T13:11:58;8.27;;;3.50;;
20649;SDS011;10484;48.736;9.332;2024-01-27T13:14:24;6.30;;;3.33;;
20649;SDS011;10484;48.736;9.332;2024-01-27T13:16:49;5.77;;;3.57;;
20649;SDS011;10484;48.736;9.332;2024-01-27T13:19:16;4.53;;;2.70;;
20649;SDS011;10484;48.736;9.332;2024-01-27T13:21:42;4.73;;;2.63;;
20649;SDS011;10484;48.736;9.332;2024-01-27T13:24:07;4.50;;;3.47;;
20649;SDS011;10484;48.736;9.332;2024-01-27T13:26:34;4.23;;;2.97;;
20649;SDS011;10484;48.736;9.332;2024-01-27T13:29:02;5.70;;;3.27;;
20649;SDS011;10484;48.736;9.332;2024-01-27T13:31:33;9.73;;;3.03;;
20649;SDS011;10484;48.736;9.332;2024-01-27T13:33:59;7.00;;;3.60;;
20649;SDS011;10484;48.736;9.332;2024-01-27T13:36:25;4.10;;;2.80;;
20649;SDS011;10484;48.736;9.332;2024-01-27T13:38:51;4.90;;;3.60;;
20649;SDS011;10484;48.736;9.332;2024-01-27T13:41:17;4.17;;;3.00;;
20649;SDS011;10484;48.736;9.332;2024-01-27T13:43:43;4.73;;;3.47;;
20649;SDS011;10484;48.736;9.332;2024-01-27T13:46:08;5.03;;;3.00;;
20649;SDS011;10484;48.736;9.332;2024-01-27T13:48:35;4.47;;;3.10;;
20649;SDS011;10484;48.736;9.332;2024-01-27T13:51:00;7.83;;;3.17;;
20649;SDS011;10484;48.736;9.332;2024-01-27T13:53:26;4.73;;;3.07;;
20649;SDS011;10484;48.736;9.332;2024-01-27T13:55:51;6.20;;;3.50;;
20649;SDS011;10484;48.736;9.332;2024-01-27T13:58:18;5.00;;;2.60;;
20649;SDS011;10484;48.736;9.332;2024-01-27T14:00:44;5.17;;;3.30;;
20649;SDS011;10484;48.736;9.332;2024-01-27T14:03:09;5.27;;;3.03;;
20649;SDS011;10484;48.736;9.332;2024-01-27T14:05:35;3.93;;;3.00;;
20649;SDS011;10484;48.736;9.332;2024-01-27T14:08:01;3.23;;;2.53;;
20649;SDS011;10484;48.736;9.332;2024-01-27T14:10:29;4.90;;;2.53;;
20649;SDS011;10484;48.736;9.332;2024-01-27T14:12:54;4.27;;;3.20;;
20649;SDS011;10484;48.736;9.332;2024-01-27T14:15:20;5.13;;;3.30;;
20649;SDS011;10484;48.736;9.332;2024-01-27T14:17:45;3.77;;;2.47;;
20649;SDS011;10484;48.736;9.332;2024-01-27T14:20:11;3.63;;;2.60;;
20649;SDS011;10484;48.736;9.332;2024-01-27T14:22:37;3.53;;;2.63;;
20649;SDS011;10484;48.736;9.332;2024-01-27T14:25:03;3.63;;;2.57;;
20649;SDS011;10484;48.736;9.332;2024-01-27T14:27:29;5.40;;;2.80;;
20649;SDS011;10484;48.736;9.332;2024-01-27T14:29:55;7.57;;;2.70;;
20649;SDS011;10484;48.736;9.332;2024-01-27T14:32:21;7.07;;;3.27;;
20649;SDS011;10484;48.736;9.332;2024-01-27T14:34:47;3.13;;;2.50;;
20649;SDS011;10484;48.736;9.332;2024-01-27T14:37:14;6.40;;;2.70;;
20649;SDS011;10484;48.736;9.332;2024-01-27T14:39:41;2.90;;;2.70;;
20649;SDS011;10484;48.736;9.332;2024-01-27T14:42:13;7.10;;;2.40;;